Pagrindinis puslapis
METAR-TAF:

METAR-TAF

Oro uostai :

Trumsė, Norvegija

platuma: 69-41N, ilguma: 018-55E, Aukštis: 1 m

Dabartinis oras

Ataskaita buvo paskelbta 18 minutes, ne 19:50 UTC
Vėjas 8 kt iš Vakarų
Temperatūra 10°C
Drėgmė 82%
Slėgis 1011 hPa
Matomumas 10 km arba daugiau
Mažai debesys ne aukštis 500 ft
Su prošvaistėmis ne aukštis 3600 ft
Liūtis kaimynystėje

METAR: ENTC 171950Z 28008KT 9999 VCSH FEW005 BKN036 10/07 Q1011 NOSIG RMK WIND 2600FT 22012KT

Laikas: 22:08 (20:08 UTC)

Prognozė

Ataskaita buvo paskelbta 1 valandą ir 50 minutes, ne 18:18 UTC
Prognozė galioja nuo 17 metu 18 UTC su 18 metu 18 UTC
Vėjas 8 kt iš Vakarų
Matomumas 10 km arba daugiau
Mažai debesys ne aukštis 2000 ft
Su prošvaistėmis ne aukštis 4000 ft
lietus
Laikinai
nuo 18 metu 15 UTC su 18 metu 18 UTC
Su prošvaistėmis ne aukštis 2000 ft
Išsisklaidę debesys ne aukštis 2500 ft, Liūtiniai kamuoliniai debesys.
lietus

TAF: ENTC 171818Z 1718/1818 27008KT 9999 -SHRA FEW020 BKN040 TEMPO 1815/1818 SHRA BKN020 SCT025CB

Orai ataskaitas ir orų prognozės (METAR, TAF).

turimą stotys yra geltonos ir raudonos taškus žemėlapyje.

Perkelti pele per norėdami pamatyti stoties vardą.

Tada spustelėkite, norėdami matyti oro stebėjimo ir prognozės.

Norėdami pakeisti žemėlapį: spustelėkite ant žalios mygtukų su juodo kryžiaus žemyn,; žalią mygtuką su brūkšneliu, jei norite nutolinti; arba žalių rodyklių gretimoms žemėlapius.


METAR-TAF: